Time;durP1;ratioP1;P1;durP2;ratioP2;P2;SDS_P1;SDS_P2;PMS_P1;PMS_P2;Temp;Humidity;BMP_temperature;BMP_pressure;BME280_temperature;BME280_humidity;BME280_pressure;Samples;Min_cycle;Max_cycle;Signal;HPM_P1;HPM_P2
2022/08/10 00:00:21;;;;;;;11.32;7.28;;;640.60;2432.00;;;;;;4979960;28;20029;-79
2022/08/10 00:02:52;;;;;;;11.52;7.70;;;640.50;2432.00;;;;;;4997601;28;20053;-78
2022/08/10 00:05:19;;;;;;;9.85;7.15;;;640.40;2432.00;;;;;;4997348;28;20031;-78
2022/08/10 00:07:45;;;;;;;14.60;7.57;;;640.40;2432.00;;;;;;4997542;28;20049;-78
2022/08/10 00:10:13;;;;;;;11.80;8.82;;;640.30;2432.00;;;;;;4980119;28;20388;-78
2022/08/10 00:12:39;;;;;;;11.80;8.65;;;640.30;2432.00;;;;;;4997357;28;20069;-78
2022/08/10 00:15:06;;;;;;;10.75;8.05;;;640.30;2432.00;;;;;;4979963;28;20053;-78
2022/08/10 00:17:32;;;;;;;13.07;8.75;;;640.20;2432.00;;;;;;4980033;28;20029;-78
2022/08/10 00:19:57;;;;;;;12.02;8.27;;;640.20;2432.00;;;;;;4980033;28;20018;-78
2022/08/10 00:22:23;;;;;;;10.35;8.52;;;640.00;2432.00;;;;;;4997514;28;20372;-79
2022/08/10 00:24:49;;;;;;;12.13;7.85;;;640.00;2432.00;;;;;;4995694;28;20414;-78
2022/08/10 00:27:15;;;;;;;9.90;8.30;;;640.00;2432.00;;;;;;4997331;28;20041;-78
2022/08/10 00:29:40;;;;;;;13.07;8.82;;;640.00;2432.00;;;;;;4997287;28;20014;-78
2022/08/10 00:32:06;;;;;;;11.43;8.75;;;640.00;2432.00;;;;;;4979751;28;20019;-78
2022/08/10 00:34:33;;;;;;;12.00;8.60;;;640.00;2432.00;;;;;;4996926;28;20066;-77
2022/08/10 00:37:00;;;;;;;11.30;8.43;;;640.10;2432.00;;;;;;4979419;28;20030;-77
2022/08/10 00:39:26;;;;;;;11.93;8.15;;;640.10;2432.00;;;;;;4997168;28;20026;-77
2022/08/10 00:41:53;;;;;;;13.00;7.97;;;640.10;2432.00;;;;;;4996704;28;20113;-76
2022/08/10 00:44:19;;;;;;;11.10;8.40;;;615.30;2432.00;;;;;;4996775;28;20113;-78
2022/08/10 00:46:44;;;;;;;11.65;8.35;;;615.30;2432.00;;;;;;4979172;28;20113;-77
2022/08/10 00:49:10;;;;;;;12.82;8.25;;;615.20;2432.00;;;;;;4996774;28;20476;-77
2022/08/10 00:51:36;;;;;;;10.40;7.57;;;615.20;2432.00;;;;;;4996750;28;20525;-77
2022/08/10 00:54:01;;;;;;;13.30;8.27;;;615.20;2432.00;;;;;;4996568;28;20027;-77
2022/08/10 00:56:27;;;;;;;12.20;8.50;;;615.20;2432.00;;;;;;4996613;28;20384;-77
2022/08/10 00:58:53;;;;;;;13.00;7.88;;;615.30;2432.00;;;;;;4996456;28;20049;-77
2022/08/10 01:01:19;;;;;;;12.70;7.70;;;615.30;2432.00;;;;;;4996519;28;20026;-78
2022/08/10 01:03:45;;;;;;;12.60;8.98;;;615.30;2432.00;;;;;;4996576;28;20128;-77
2022/08/10 01:06:22;;;;;;;16.40;9.50;;;615.30;2432.00;;;;;;4973597;28;20388;-77
2022/08/10 01:09:01;;;;;;;12.88;8.82;;;615.30;2432.00;;;;;;4988385;28;20061;-78
2022/08/10 01:11:47;;;;;;;11.95;8.73;;;615.30;2432.00;;;;;;4994580;28;20030;-77
2022/08/10 01:14:40;;;;;;;13.30;8.88;;;615.30;2432.00;;;;;;4992242;28;20065;-78
2022/08/10 01:17:14;;;;;;;10.70;8.63;;;615.30;2432.00;;;;;;4996339;28;20030;-78
2022/08/10 01:20:01;;;;;;;13.55;7.95;;;615.20;2432.00;;;;;;4978805;28;20022;-78
2022/08/10 01:23:03;;;;;;;12.38;7.43;;;615.20;2432.00;;;;;;4996056;28;20022;-79
2022/08/10 01:25:41;;;;;;;8.68;6.45;;;615.20;2432.00;;;;;;4996362;28;20026;-78
2022/08/10 01:28:37;;;;;;;9.60;6.30;;;615.20;2432.00;;;;;;4996228;28;20030;-77
2022/08/10 01:31:04;;;;;;;12.65;6.90;;;615.20;2432.00;;;;;;4985165;28;20487;-78
2022/08/10 01:33:35;;;;;;;7.82;5.72;;;614.90;2432.00;;;;;;4996118;28;20038;-77
2022/08/10 01:36:11;;;;;;;9.23;5.47;;;615.20;2432.00;;;;;;4995727;28;20029;-78
2022/08/10 01:38:41;;;;;;;8.82;5.70;;;615.10;2432.00;;;;;;4997608;28;20092;-77
2022/08/10 01:41:14;;;;;;;7.50;5.63;;;615.00;2432.00;;;;;;5001066;28;20042;-78
2022/08/10 01:43:44;;;;;;;8.02;5.40;;;614.90;2432.00;;;;;;4978419;28;20038;-78
2022/08/10 01:46:12;;;;;;;7.22;4.78;;;615.00;2432.00;;;;;;4978051;28;20077;-78
2022/08/10 01:48:43;;;;;;;12.05;5.03;;;615.00;2432.00;;;;;;4995785;28;20054;-79
2022/08/10 01:51:21;;;;;;;10.50;4.65;;;615.00;2432.00;;;;;;4998135;28;20025;-77
2022/08/10 01:53:56;;;;;;;9.50;5.10;;;614.90;2432.00;;;;;;4997638;28;20026;-78
2022/08/10 01:56:25;;;;;;;7.93;4.50;;;614.90;2432.00;;;;;;4997635;28;20022;-77
2022/08/10 01:58:56;;;;;;;6.93;3.53;;;614.80;2432.00;;;;;;4997383;28;20046;-77
2022/08/10 02:01:24;;;;;;;7.30;3.85;;;614.80;2432.00;;;;;;4997741;28;20040;-79
2022/08/10 02:03:54;;;;;;;7.38;3.58;;;614.70;2432.00;;;;;;4997486;28;20104;-78
2022/08/10 02:06:23;;;;;;;12.50;3.60;;;614.80;2432.00;;;;;;5014911;28;20034;-79
2022/08/10 02:08:50;;;;;;;6.22;3.00;;;614.70;2432.00;;;;;;5014884;28;20034;-79
2022/08/10 02:11:18;;;;;;;4.30;2.95;;;614.70;2432.00;;;;;;4997425;28;20026;-80
2022/08/10 02:13:46;;;;;;;6.03;3.40;;;614.70;2380.80;;;;;;4990415;28;20518;-79
2022/08/10 02:16:14;;;;;;;5.00;2.47;;;614.70;2380.80;;;;;;4977955;28;20117;-78
2022/08/10 02:18:41;;;;;;;6.60;2.90;;;614.70;2329.60;;;;;;4977566;28;20099;-77
2022/08/10 02:21:09;;;;;;;4.60;2.58;;;614.60;2304.00;;;;;;4977314;28;20065;-78
2022/08/10 02:23:38;;;;;;;7.00;2.55;;;614.70;2304.00;;;;;;4995027;28;20050;-79
2022/08/10 02:26:07;;;;;;;4.15;3.05;;;614.70;2278.40;;;;;;4995101;28;20080;-79
2022/08/10 02:28:34;;;;;;;5.90;2.58;;;614.60;2278.40;;;;;;4977468;28;20038;-79
2022/08/10 02:31:08;;;;;;;6.03;2.88;;;614.70;2252.80;;;;;;4995155;28;20472;-79
2022/08/10 02:33:34;;;;;;;5.50;2.75;;;614.60;2252.80;;;;;;4994701;28;20058;-78
2022/08/10 02:36:03;;;;;;;6.55;2.85;;;614.60;2227.20;;;;;;4976503;28;20053;-78
2022/08/10 02:38:40;;;;;;;6.45;2.88;;;614.60;2227.20;;;;;;4993469;28;20027;-79
2022/08/10 02:41:12;;;;;;;7.53;3.00;;;614.60;2201.60;;;;;;4976544;28;20510;-79
2022/08/10 02:43:49;;;;;;;6.40;2.90;;;614.50;2227.20;;;;;;4975916;28;20041;-78
2022/08/10 02:46:36;;;;;;;4.80;2.65;;;614.50;2201.60;;;;;;4976232;28;20023;-78
2022/08/10 02:49:04;;;;;;;4.82;2.72;;;614.40;2227.20;;;;;;4976044;28;20018;-79
2022/08/10 02:51:41;;;;;;;4.90;2.70;;;614.40;2252.80;;;;;;4992607;28;20084;-78
2022/08/10 02:54:12;;;;;;;3.88;2.42;;;614.40;2252.80;;;;;;4974184;28;20026;-79
2022/08/10 02:57:06;;;;;;;4.95;2.80;;;614.40;2252.80;;;;;;4993514;28;20025;-78
2022/08/10 02:59:47;;;;;;;7.50;2.90;;;614.40;2227.20;;;;;;4990910;28;20043;-78
2022/08/10 03:02:25;;;;;;;6.13;2.20;;;614.40;2252.80;;;;;;4992487;28;20026;-78
2022/08/10 03:04:55;;;;;;;6.57;2.72;;;614.40;2278.40;;;;;;4991767;28;20041;-78
2022/08/10 03:07:24;;;;;;;5.82;2.72;;;614.40;2252.80;;;;;;4990550;28;20048;-78
2022/08/10 03:09:52;;;;;;;3.72;2.60;;;614.50;2227.20;;;;;;4993119;28;20022;-78
2022/08/10 03:12:19;;;;;;;6.85;2.67;;;614.50;2227.20;;;;;;4993249;28;20030;-77
2022/08/10 03:14:47;;;;;;;5.53;2.28;;;614.50;2227.20;;;;;;4992044;28;20061;-79
2022/08/10 03:17:15;;;;;;;4.97;2.85;;;614.60;2227.20;;;;;;4993175;28;20046;-79
2022/08/10 03:19:43;;;;;;;4.22;2.30;;;614.60;2227.20;;;;;;4975681;28;20096;-79
2022/08/10 03:22:10;;;;;;;6.38;2.53;;;614.60;2227.20;;;;;;4993059;28;20089;-79
2022/08/10 03:24:36;;;;;;;3.83;2.45;;;614.60;2227.20;;;;;;4975377;28;20042;-78
2022/08/10 03:27:03;;;;;;;6.57;3.65;;;614.50;2252.80;;;;;;4975184;28;20128;-79
2022/08/10 03:29:31;;;;;;;6.35;2.83;;;614.40;2252.80;;;;;;4992987;28;20029;-79
2022/08/10 03:31:58;;;;;;;9.07;3.15;;;589.70;2278.40;;;;;;4991334;28;20026;-77
2022/08/10 03:34:25;;;;;;;3.38;2.47;;;589.70;2278.40;;;;;;4991755;28;20038;-78
2022/08/10 03:36:51;;;;;;;4.03;3.00;;;589.70;2304.00;;;;;;4992426;28;20027;-78
2022/08/10 03:39:17;;;;;;;5.75;3.10;;;589.70;2304.00;;;;;;4992528;28;20026;-78
2022/08/10 03:41:51;;;;;;;4.18;2.78;;;589.70;2278.40;;;;;;4992574;28;20416;-78
2022/08/10 03:44:24;;;;;;;6.72;2.85;;;614.40;2304.00;;;;;;4974976;28;20147;-77
2022/08/10 03:46:52;;;;;;;4.10;2.88;;;589.70;2304.00;;;;;;5000528;28;20037;-80
2022/08/10 03:49:19;;;;;;;5.50;2.88;;;614.40;2278.40;;;;;;4981244;28;20029;-78
2022/08/10 03:51:48;;;;;;;4.60;2.60;;;614.40;2278.40;;;;;;5003343;28;20022;-78
2022/08/10 03:54:18;;;;;;;8.25;3.30;;;614.40;2304.00;;;;;;4984356;28;20128;-79
2022/08/10 03:56:44;;;;;;;4.10;2.80;;;614.50;2304.00;;;;;;4998042;28;20022;-78
2022/08/10 03:59:13;;;;;;;6.25;2.67;;;614.40;2304.00;;;;;;4977901;28;20041;-83
2022/08/10 04:01:50;;;;;;;7.15;3.30;;;614.40;2304.00;;;;;;5002314;28;20026;-82
2022/08/10 04:04:16;;;;;;;5.03;2.95;;;614.40;2304.00;;;;;;4997551;28;20592;-79
2022/08/10 04:06:42;;;;;;;6.05;3.42;;;614.40;2329.60;;;;;;4984955;28;20144;-78
2022/08/10 04:09:08;;;;;;;4.78;3.25;;;614.40;2304.00;;;;;;4999717;28;20018;-75
2022/08/10 04:11:35;;;;;;;6.78;3.47;;;614.40;2329.60;;;;;;5003309;28;20041;-77
2022/08/10 04:14:03;;;;;;;6.70;2.90;;;614.40;2329.60;;;;;;4985367;28;20033;-78
2022/08/10 04:16:28;;;;;;;5.30;2.88;;;614.40;2355.20;;;;;;4987645;28;20124;-77
2022/08/10 04:18:54;;;;;;;4.45;3.10;;;614.40;2355.20;;;;;;5003883;28;20101;-79
2022/08/10 04:21:25;;;;;;;6.18;2.95;;;614.50;2329.60;;;;;;4982529;28;20045;-79
2022/08/10 04:23:53;;;;;;;6.40;3.22;;;614.70;2329.60;;;;;;5001621;28;20041;-78
2022/08/10 04:26:19;;;;;;;6.97;3.20;;;614.60;2329.60;;;;;;5006361;28;20033;-79
2022/08/10 04:28:47;;;;;;;5.65;2.80;;;614.40;2329.60;;;;;;5002825;28;20025;-76
2022/08/10 04:31:15;;;;;;;5.80;2.95;;;614.60;2329.60;;;;;;5001186;28;20021;-76
2022/08/10 04:33:46;;;;;;;6.90;3.42;;;614.60;2329.60;;;;;;4998387;28;20022;-76
2022/08/10 04:36:14;;;;;;;10.65;3.28;;;614.60;2329.60;;;;;;4993837;28;20023;-77
2022/08/10 04:38:42;;;;;;;10.32;3.08;;;614.60;2355.20;;;;;;4975928;28;20034;-78
2022/08/10 04:41:08;;;;;;;8.77;3.40;;;614.60;2355.20;;;;;;4992898;28;20065;-80
2022/08/10 04:43:35;;;;;;;6.50;3.00;;;614.60;2329.60;;;;;;4993305;28;20025;-77
2022/08/10 04:46:00;;;;;;;5.18;3.33;;;614.70;2329.60;;;;;;4995704;28;20357;-77
2022/08/10 04:48:26;;;;;;;4.72;3.50;;;614.70;2329.60;;;;;;4996776;28;20097;-79
2022/08/10 04:50:52;;;;;;;8.38;3.38;;;614.70;2329.60;;;;;;4990454;28;20030;-78
2022/08/10 04:53:18;;;;;;;8.10;3.78;;;614.70;2304.00;;;;;;4990426;28;20030;-79
2022/08/10 04:55:43;;;;;;;9.88;3.20;;;614.80;2304.00;;;;;;4979104;28;20058;-80
2022/08/10 04:58:09;;;;;;;6.88;2.60;;;614.70;2304.00;;;;;;4978695;28;20035;-77
2022/08/10 05:00:35;;;;;;;10.95;3.58;;;614.60;2329.60;;;;;;4996641;28;20022;-79
2022/08/10 05:03:01;;;;;;;11.20;3.25;;;614.60;2329.60;;;;;;4981665;28;20041;-78
2022/08/10 05:05:27;;;;;;;6.90;3.40;;;614.60;2329.60;;;;;;4991963;28;20018;-79
2022/08/10 05:07:53;;;;;;;6.50;3.28;;;614.60;2329.60;;;;;;5001486;28;20507;-77
2022/08/10 05:10:19;;;;;;;7.55;3.50;;;614.60;2355.20;;;;;;5006791;28;20033;-79
2022/08/10 05:12:45;;;;;;;12.15;3.50;;;614.50;2380.80;;;;;;4988361;28;20487;-77
2022/08/10 05:15:13;;;;;;;4.60;2.75;;;614.60;2380.80;;;;;;5004995;28;20018;-77
2022/08/10 05:17:41;;;;;;;8.35;2.70;;;614.50;2355.20;;;;;;4984922;28;20028;-78
2022/08/10 05:20:10;;;;;;;7.25;2.90;;;614.60;2355.20;;;;;;5005699;28;20375;-77
2022/08/10 05:22:42;;;;;;;5.45;2.83;;;614.60;2355.20;;;;;;5012773;28;20109;-79
2022/08/10 05:25:15;;;;;;;7.50;3.80;;;614.60;2355.20;;;;;;4991344;28;20021;-79
2022/08/10 05:27:41;;;;;;;7.38;3.10;;;614.60;2380.80;;;;;;4978375;28;20041;-79
2022/08/10 05:30:09;;;;;;;11.38;4.20;;;614.40;2432.00;;;;;;4996210;28;20022;-79
2022/08/10 05:32:36;;;;;;;11.38;4.05;;;614.40;2432.00;;;;;;4978750;28;20030;-77
2022/08/10 05:35:02;;;;;;;6.05;3.53;;;589.70;2432.00;;;;;;4983300;28;20022;-78
2022/08/10 05:37:29;;;;;;;8.60;3.92;;;589.60;2432.00;;;;;;5004611;28;20038;-80
2022/08/10 05:39:55;;;;;;;7.38;3.67;;;589.50;2432.00;;;;;;5005600;28;20018;-79
2022/08/10 05:42:22;;;;;;;11.18;3.95;;;589.50;2432.00;;;;;;4988001;28;20492;-80
2022/08/10 05:44:48;;;;;;;6.45;3.70;;;589.40;2432.00;;;;;;5004341;28;20018;-77
2022/08/10 05:47:15;;;;;;;8.73;3.20;;;589.30;2432.00;;;;;;4997963;28;20480;-77
2022/08/10 05:49:41;;;;;;;8.35;3.55;;;589.40;2432.00;;;;;;4988109;28;20064;-81
2022/08/10 05:52:07;;;;;;;13.15;3.85;;;589.50;2432.00;;;;;;5004792;28;20023;-81
2022/08/10 05:54:33;;;;;;;4.95;2.97;;;589.40;2432.00;;;;;;5005900;28;20498;-79
2022/08/10 05:56:59;;;;;;;8.02;4.07;;;589.50;2432.00;;;;;;5003940;28;20022;-81
2022/08/10 05:59:32;;;;;;;7.72;3.20;;;589.40;2432.00;;;;;;4984143;28;20475;-81
2022/08/10 06:02:01;;;;;;;4.68;2.92;;;589.50;2432.00;;;;;;4978592;28;20037;-80
2022/08/10 06:04:36;;;;;;;7.68;3.33;;;589.50;2432.00;;;;;;4995610;28;20076;-81
2022/08/10 06:07:05;;;;;;;5.77;3.07;;;589.50;2432.00;;;;;;5005251;28;20037;-79
2022/08/10 06:09:32;;;;;;;6.13;3.10;;;589.40;2432.00;;;;;;5010023;28;20027;-78
2022/08/10 06:12:00;;;;;;;8.18;3.72;;;589.40;2432.00;;;;;;4995348;28;20030;-84
2022/08/10 06:17:12;;;;;;;9.80;3.72;;;589.50;2432.00;;;;;;4995481;28;20037;-78
2022/08/10 06:19:40;;;;;;;7.53;3.63;;;589.40;2432.00;;;;;;4982896;28;20028;-77
2022/08/10 06:22:06;;;;;;;7.97;3.47;;;589.40;2432.00;;;;;;5005833;28;20060;-81
2022/08/10 06:24:39;;;;;;;6.90;3.17;;;589.30;2432.00;;;;;;4983064;28;20014;-80
2022/08/10 06:27:06;;;;;;;6.50;3.47;;;589.40;2432.00;;;;;;4995140;28;20022;-80
2022/08/10 06:29:34;;;;;;;6.82;3.50;;;589.50;2432.00;;;;;;5003515;28;20050;-79
2022/08/10 06:32:01;;;;;;;7.22;3.55;;;589.60;2432.00;;;;;;4996677;28;20101;-80
2022/08/10 06:34:42;;;;;;;8.50;3.83;;;589.40;2432.00;;;;;;4997419;28;20382;-79
2022/08/10 06:37:09;;;;;;;9.00;3.58;;;589.40;2432.00;;;;;;5001664;28;20042;-78
2022/08/10 06:39:35;;;;;;;9.60;3.30;;;589.70;2432.00;;;;;;4977471;28;20022;-80
2022/08/10 06:42:31;;;;;;;4.78;3.03;;;589.60;2432.00;;;;;;4976918;28;20051;-80
2022/08/10 06:44:58;;;;;;;7.35;3.65;;;614.70;2432.00;;;;;;4977390;28;20026;-79
2022/08/10 06:47:42;;;;;;;4.00;2.60;;;614.90;2432.00;;;;;;4990624;28;20037;-78
2022/08/10 06:50:31;;;;;;;6.13;2.63;;;615.10;2406.40;;;;;;5001936;28;20022;-80
2022/08/10 06:53:00;;;;;;;8.32;2.83;;;615.20;2355.20;;;;;;4972845;28;20609;-80
2022/08/10 06:55:26;;;;;;;5.65;3.10;;;615.30;2329.60;;;;;;4955232;28;20038;-80
2022/08/10 06:57:54;;;;;;;9.70;2.53;;;615.30;2278.40;;;;;;4971262;28;20102;-80
2022/08/10 07:00:21;;;;;;;11.68;2.47;;;640.50;2278.40;;;;;;4955043;28;20090;-81
2022/08/10 07:02:50;;;;;;;6.07;2.40;;;640.60;2227.20;;;;;;4973133;28;20042;-81
2022/08/10 07:05:19;;;;;;;6.95;2.85;;;640.70;2176.00;;;;;;4972127;28;20057;-78
2022/08/10 07:07:46;;;;;;;5.65;3.22;;;640.70;2124.80;;;;;;4978018;28;20043;-77
2022/08/10 07:10:17;;;;;;;4.13;2.75;;;640.80;2150.40;;;;;;4972167;28;20542;-80
2022/08/10 07:12:45;;;;;;;6.05;2.72;;;640.70;2150.40;;;;;;4972114;28;20031;-80
2022/08/10 07:15:13;;;;;;;8.23;2.97;;;640.70;2099.20;;;;;;4942828;28;20045;-77
2022/08/10 07:17:40;;;;;;;5.60;2.85;;;640.60;2124.80;;;;;;4972193;28;20506;-78
2022/08/10 07:20:08;;;;;;;3.22;2.33;;;640.50;2176.00;;;;;;4955597;28;20026;-79
2022/08/10 07:22:36;;;;;;;10.77;3.40;;;640.80;2124.80;;;;;;4971962;28;20029;-79
2022/08/10 07:25:04;;;;;;;6.95;3.00;;;665.70;2124.80;;;;;;4963819;28;20031;-79
2022/08/10 07:27:32;;;;;;;7.55;3.17;;;665.80;2124.80;;;;;;4975031;28;20046;-78
2022/08/10 07:29:59;;;;;;;9.93;3.20;;;665.80;2099.20;;;;;;4983452;28;20034;-79
2022/08/10 07:32:25;;;;;;;6.63;2.30;;;665.90;2099.20;;;;;;4994097;28;20025;-80
2022/08/10 07:34:53;;;;;;;4.18;2.63;;;666.10;2099.20;;;;;;4993913;28;20026;-77
2022/08/10 07:37:21;;;;;;;7.22;3.28;;;666.30;2073.60;;;;;;4993894;28;20034;-77
2022/08/10 07:39:49;;;;;;;7.40;3.15;;;666.50;2073.60;;;;;;4993984;28;20023;-78
2022/08/10 07:42:18;;;;;;;5.88;3.40;;;666.50;2073.60;;;;;;4993549;28;20046;-81
2022/08/10 07:44:45;;;;;;;6.97;2.50;;;666.50;2099.20;;;;;;4993841;28;20023;-78
2022/08/10 07:47:27;;;;;;;5.07;2.53;;;691.20;2073.60;;;;;;4993704;28;20076;-79
2022/08/10 07:49:57;;;;;;;5.75;2.38;;;691.30;2022.40;;;;;;4993828;28;20101;-79
2022/08/10 07:52:24;;;;;;;3.70;2.13;;;691.50;2022.40;;;;;;4976220;28;20109;-78
2022/08/10 07:54:52;;;;;;;32.90;5.00;;;691.60;1971.20;;;;;;4976142;28;20546;-78
2022/08/10 07:57:28;;;;;;;40.88;5.63;;;691.70;1971.20;;;;;;4976238;28;20030;-78
2022/08/10 08:00:05;;;;;;;;;;;691.70;1945.60;;;;;;4976546;28;20430;-78
2022/08/10 08:02:38;;;;;;;7.68;2.45;;;691.90;1945.60;;;;;;4976215;28;20331;-78
2022/08/10 08:05:08;;;;;;;7.20;2.50;;;691.80;1920.00;;;;;;4976110;28;20033;-79
2022/08/10 08:07:36;;;;;;;9.05;2.60;;;692.00;1945.60;;;;;;4976183;28;20042;-78
2022/08/10 08:10:03;;;;;;;6.57;2.50;;;692.00;1945.60;;;;;;4993687;28;20105;-78
2022/08/10 08:12:30;;;;;;;3.05;1.88;;;692.10;1920.00;;;;;;4993318;28;20025;-79
2022/08/10 08:14:58;;;;;;;3.38;1.90;;;716.80;1894.40;;;;;;4993670;28;20026;-82
2022/08/10 08:17:25;;;;;;;3.55;2.03;;;716.80;1868.80;;;;;;4993209;28;20023;-79
2022/08/10 08:19:54;;;;;;;6.07;2.85;;;716.90;1843.20;;;;;;4994520;28;20022;-77
2022/08/10 08:22:21;;;;;;;8.75;2.40;;;716.90;1843.20;;;;;;4997632;28;20014;-78
2022/08/10 08:24:49;;;;;;;5.22;2.35;;;716.90;1792.00;;;;;;4979942;28;20032;-80
2022/08/10 08:27:18;;;;;;;5.10;2.40;;;717.10;1792.00;;;;;;4979798;28;20034;-83
2022/08/10 08:29:46;;;;;;;3.55;2.30;;;717.10;1792.00;;;;;;4979985;28;20034;-80
2022/08/10 08:32:16;;;;;;;3.63;2.10;;;717.10;1740.80;;;;;;4997432;28;20022;-79
2022/08/10 08:34:45;;;;;;;7.57;2.30;;;717.10;1715.20;;;;;;4996977;28;20077;-83
2022/08/10 08:37:13;;;;;;;4.45;2.40;;;717.30;1715.20;;;;;;4997268;28;20392;-82
2022/08/10 08:39:40;;;;;;;5.38;2.38;;;717.20;1715.20;;;;;;4997240;28;20054;-78
2022/08/10 08:42:14;;;;;;;7.03;2.40;;;717.20;1689.60;;;;;;4996814;28;20467;-78
2022/08/10 08:45:05;;;;;;;4.32;2.38;;;717.40;1689.60;;;;;;4996927;28;20033;-79
2022/08/10 08:47:51;;;;;;;4.47;2.92;;;717.30;1664.00;;;;;;4996865;28;20026;-78
2022/08/10 08:50:35;;;;;;;6.35;2.35;;;717.30;1638.40;;;;;;4997040;28;20018;-78
2022/08/10 08:53:42;;;;;;;3.75;2.30;;;717.40;1638.40;;;;;;4996989;28;20022;-78
2022/08/10 08:56:23;;;;;;;6.90;2.80;;;717.40;1638.40;;;;;;4996967;28;20026;-79
2022/08/10 08:59:22;;;;;;;3.55;2.42;;;717.40;1612.80;;;;;;4979325;28;20026;-78
2022/08/10 09:02:14;;;;;;;6.72;2.70;;;717.50;1612.80;;;;;;4983131;28;20093;-78
2022/08/10 09:04:40;;;;;;;6.68;2.78;;;717.50;1587.20;;;;;;4973838;28;20097;-78
2022/08/10 09:07:30;;;;;;;6.70;3.33;;;717.50;1587.20;;;;;;4996718;28;20042;-79
2022/08/10 09:10:09;;;;;;;5.53;2.40;;;717.70;1587.20;;;;;;4996631;28;20472;-78
2022/08/10 09:13:18;;;;;;;6.70;2.78;;;742.40;1612.80;;;;;;4978872;28;20028;-77
2022/08/10 09:15:55;;;;;;;4.90;2.20;;;742.40;1612.80;;;;;;4936541;29;20027;-77
2022/08/10 09:18:28;;;;;;;3.33;1.90;;;742.60;1587.20;;;;;;4936399;29;20126;-78
2022/08/10 09:21:28;;;;;;;4.88;2.80;;;742.70;1561.60;;;;;;4936571;29;20430;-78
2022/08/10 09:24:20;;;;;;;4.30;2.80;;;742.70;1536.00;;;;;;4879703;29;20040;-80
2022/08/10 09:26:50;;;;;;;9.23;2.78;;;742.60;1561.60;;;;;;4879588;29;20404;-77
2022/08/10 09:29:25;;;;;;;5.60;2.30;;;742.90;1561.60;;;;;;4879537;29;20036;-77
2022/08/10 09:32:02;;;;;;;6.10;2.40;;;742.90;1536.00;;;;;;4878369;29;20139;-79
2022/08/10 09:34:54;;;;;;;3.88;2.55;;;743.10;1510.40;;;;;;4879537;29;20108;-77
2022/08/10 09:37:30;;;;;;;6.60;2.80;;;743.10;1484.80;;;;;;4879086;29;20045;-78
2022/08/10 09:40:01;;;;;;;7.53;2.65;;;743.30;1484.80;;;;;;4879569;29;20395;-80
2022/08/10 09:42:54;;;;;;;7.30;2.60;;;768.00;1459.20;;;;;;4879108;29;20059;-81
2022/08/10 09:45:30;;;;;;;5.25;2.22;;;768.10;1433.60;;;;;;4879516;29;20048;-80
2022/08/10 09:48:12;;;;;;;6.97;2.70;;;768.20;1433.60;;;;;;4879354;29;20085;-81
2022/08/10 09:51:08;;;;;;;5.50;2.30;;;768.40;1433.60;;;;;;4929710;29;20042;-78
2022/08/10 09:54:09;;;;;;;3.70;2.15;;;768.40;1433.60;;;;;;4931806;29;20043;-83
2022/08/10 09:56:55;;;;;;;4.30;2.00;;;768.60;1408.00;;;;;;4858583;29;20033;-78
2022/08/10 09:59:46;;;;;;;3.30;2.17;;;768.60;1382.40;;;;;;4855143;29;20049;-78
2022/08/10 10:02:26;;;;;;;7.78;2.25;;;768.90;1382.40;;;;;;4875184;29;20029;-79
2022/08/10 10:05:28;;;;;;;6.32;2.58;;;793.60;1382.40;;;;;;4875135;29;20502;-78
2022/08/10 10:08:09;;;;;;;4.78;2.60;;;793.90;1356.80;;;;;;4878755;29;20049;-78
2022/08/10 10:10:52;;;;;;;9.77;2.30;;;794.10;1356.80;;;;;;4877375;29;20041;-80
2022/08/10 10:13:49;;;;;;;2.97;2.00;;;794.20;1356.80;;;;;;4878858;29;20029;-81
2022/08/10 10:16:37;;;;;;;8.25;2.55;;;794.50;1331.20;;;;;;4874883;29;20089;-80
2022/08/10 10:19:43;;;;;;;3.40;2.38;;;819.30;1280.00;;;;;;4867019;29;20106;-82
2022/08/10 10:22:32;;;;;;;3.95;2.28;;;819.20;1305.60;;;;;;4874661;29;20054;-79
2022/08/10 10:25:26;;;;;;;5.43;2.28;;;819.30;1280.00;;;;;;4872052;29;20491;-80
2022/08/10 10:28:19;;;;;;;6.13;2.33;;;819.30;1280.00;;;;;;4875873;29;20423;-82
2022/08/10 10:31:22;;;;;;;3.67;1.77;;;819.40;1280.00;;;;;;4917777;28;20039;-79
2022/08/10 10:34:09;;;;;;;3.80;2.17;;;819.60;1280.00;;;;;;4963271;28;20030;-77
2022/08/10 10:36:39;;;;;;;4.50;1.80;;;819.80;1254.40;;;;;;4976249;28;20032;-79
2022/08/10 10:39:06;;;;;;;5.35;2.55;;;820.10;1254.40;;;;;;4993822;28;20027;-77
2022/08/10 10:41:55;;;;;;;3.95;1.90;;;820.10;1203.20;;;;;;4994604;28;20120;-78
2022/08/10 10:44:54;;;;;;;5.55;2.28;;;844.90;1203.20;;;;;;4994510;28;20022;-77
2022/08/10 10:48:01;;;;;;;3.35;2.10;;;844.90;1203.20;;;;;;4983534;28;20034;-83
2022/08/10 10:50:38;;;;;;;3.17;1.60;;;844.90;1177.60;;;;;;4993863;28;20046;-80
2022/08/10 10:53:26;;;;;;;4.45;2.25;;;845.00;1152.00;;;;;;4968744;28;20089;-79
2022/08/10 10:56:00;;;;;;;6.03;2.17;;;845.20;1177.60;;;;;;4994564;28;20130;-79
2022/08/10 10:58:47;;;;;;;4.85;1.83;;;845.30;1177.60;;;;;;4994332;28;20384;-79
2022/08/10 11:01:21;;;;;;;8.25;2.05;;;845.20;1203.20;;;;;;4994437;28;20468;-81
2022/08/10 11:04:01;;;;;;;8.23;2.17;;;845.20;1152.00;;;;;;4977115;28;20026;-80
2022/08/10 11:06:56;;;;;;;9.15;1.95;;;845.00;1152.00;;;;;;4975762;28;20117;-79
2022/08/10 11:09:30;;;;;;;4.47;2.05;;;845.30;1126.40;;;;;;4994586;28;20035;-78
2022/08/10 11:12:01;;;;;;;5.53;2.22;;;845.40;1126.40;;;;;;4994538;28;20023;-78
2022/08/10 11:14:54;;;;;;;6.88;2.00;;;845.50;1126.40;;;;;;4994057;28;20026;-81
2022/08/10 11:17:47;;;;;;;3.65;2.25;;;845.50;1126.40;;;;;;4976889;28;20023;-77
2022/08/10 11:20:22;;;;;;;6.93;2.33;;;870.40;1126.40;;;;;;4979806;28;20030;-79
2022/08/10 11:23:11;;;;;;;6.95;1.98;;;845.60;1100.80;;;;;;4994263;28;20476;-77
2022/08/10 11:25:43;;;;;;;5.20;2.10;;;845.60;1100.80;;;;;;4994214;28;20062;-83
2022/08/10 11:28:16;;;;;;;6.78;2.15;;;870.40;1100.80;;;;;;4993987;28;20121;-79
2022/08/10 11:30:49;;;;;;;2.90;1.90;;;870.50;1075.20;;;;;;4994222;28;20033;-88
2022/08/10 11:33:35;;;;;;;4.07;1.95;;;870.50;1100.80;;;;;;4992554;28;20038;-77
2022/08/10 11:36:07;;;;;;;5.78;1.80;;;870.60;1100.80;;;;;;4993475;28;20026;-79
2022/08/10 11:38:42;;;;;;;4.13;2.42;;;870.60;1100.80;;;;;;4968276;28;20412;-80
2022/08/10 11:41:43;;;;;;;4.95;2.13;;;870.60;1049.60;;;;;;4972106;28;20500;-79
2022/08/10 11:44:38;;;;;;;4.78;2.13;;;870.50;1075.20;;;;;;4952844;29;20039;-80
2022/08/10 11:47:11;;;;;;;4.13;2.17;;;870.50;1075.20;;;;;;4953398;29;20027;-75
2022/08/10 11:50:00;;;;;;;2.90;1.70;;;870.60;1075.20;;;;;;4952966;29;20834;-77
2022/08/10 11:52:50;;;;;;;5.60;1.95;;;870.60;1075.20;;;;;;4953039;29;20098;-74
2022/08/10 11:55:22;;;;;;;3.20;2.00;;;870.80;1049.60;;;;;;4951822;28;20043;-81
2022/08/10 11:57:55;;;;;;;4.78;2.50;;;870.90;1049.60;;;;;;4959559;28;20106;-79
2022/08/10 12:00:22;;;;;;;6.00;2.20;;;870.90;1049.60;;;;;;4942849;28;20039;-80
2022/08/10 12:03:14;;;;;;;5.10;2.00;;;870.90;1024.00;;;;;;4966543;28;20045;-84
2022/08/10 12:05:41;;;;;;;6.97;2.03;;;870.80;1024.00;;;;;;4949502;28;20046;-83
2022/08/10 12:08:07;;;;;;;5.00;2.20;;;870.90;998.40;;;;;;4953181;29;20067;-77
2022/08/10 12:10:34;;;;;;;5.70;2.55;;;871.00;972.80;;;;;;4953450;29;20058;-80
2022/08/10 12:13:14;;;;;;;5.40;1.92;;;870.80;998.40;;;;;;4940147;28;20515;-82
2022/08/10 12:15:56;;;;;;;8.02;2.00;;;870.90;998.40;;;;;;4942034;29;20053;-82
2022/08/10 12:18:31;;;;;;;3.97;1.73;;;870.90;972.80;;;;;;4942516;29;20026;-81
2022/08/10 12:21:01;;;;;;;3.15;1.65;;;870.90;972.80;;;;;;4967844;28;20046;-77
2022/08/10 12:23:52;;;;;;;2.60;1.77;;;870.90;972.80;;;;;;4983521;28;20027;-77
2022/08/10 12:26:24;;;;;;;8.77;2.30;;;871.10;998.40;;;;;;4967552;28;20105;-77
2022/08/10 12:29:12;;;;;;;3.53;2.22;;;871.10;972.80;;;;;;4982832;28;20495;-78
2022/08/10 12:31:47;;;;;;;3.17;2.03;;;871.30;972.80;;;;;;4981738;28;20484;-76
2022/08/10 12:34:18;;;;;;;6.75;1.67;;;896.00;998.40;;;;;;4974100;28;20023;-82
2022/08/10 12:36:52;;;;;;;5.68;2.05;;;896.00;972.80;;;;;;4970562;28;20399;-80
2022/08/10 12:39:20;;;;;;;5.25;2.00;;;871.10;972.80;;;;;;4993489;28;20032;-79
2022/08/10 12:42:02;;;;;;;3.30;1.88;;;871.30;972.80;;;;;;4993384;28;20052;-79
2022/08/10 12:45:13;;;;;;;7.25;1.90;;;871.30;947.20;;;;;;4967375;28;20027;-84
2022/08/10 12:47:51;;;;;;;4.38;1.67;;;871.30;972.80;;;;;;4940476;29;20562;-79
2022/08/10 12:50:25;;;;;;;6.88;3.17;;;871.30;947.20;;;;;;4952420;29;20042;-79